Time;durP1;ratioP1;P1;durP2;ratioP2;P2;SDS_P1;SDS_P2;PMS_P1;PMS_P2;Temp;Humidity;BMP_temperature;BMP_pressure;BME280_temperature;BME280_humidity;BME280_pressure;Samples;Min_cycle;Max_cycle;Signal;HPM_P1;HPM_P2
2023/04/20 00:01:11;;;;;;;6.07;3.33;;;;;;;;;;5048859;28;20029;-78
2023/04/20 00:03:37;;;;;;;6.90;2.80;;;;;;;;;;5048910;28;20028;-79
2023/04/20 00:06:04;;;;;;;6.23;3.10;;;;;;;;;;5050181;28;20030;-80
2023/04/20 00:08:33;;;;;;;8.20;3.53;;;;;;;;;;5047922;28;20024;-78
2023/04/20 00:11:01;;;;;;;7.37;3.70;;;;;;;;;;5048944;28;20041;-76
2023/04/20 00:13:27;;;;;;;6.73;3.03;;;;;;;;;;5050730;28;20038;-79
2023/04/20 00:15:54;;;;;;;8.27;4.10;;;;;;;;;;5074527;23;20064;-77
2023/04/20 00:18:20;;;;;;;10.20;3.50;;;;;;;;;;5051261;28;20040;-79
2023/04/20 00:20:48;;;;;;;6.43;2.93;;;;;;;;;;5051274;28;20033;-78
2023/04/20 00:23:14;;;;;;;7.53;3.10;;;;;;;;;;5049432;28;20064;-78
2023/04/20 00:25:40;;;;;;;5.63;3.50;;;;;;;;;;5049705;28;20022;-77
2023/04/20 00:28:06;;;;;;;7.63;3.00;;;;;;;;;;5050328;28;20075;-76
2023/04/20 00:30:32;;;;;;;5.77;3.03;;;;;;;;;;5051143;28;20026;-76
2023/04/20 00:33:01;;;;;;;8.00;3.20;;;;;;;;;;5050766;28;20022;-77
2023/04/20 00:35:27;;;;;;;9.60;2.67;;;;;;;;;;5049652;28;20052;-79
2023/04/20 00:37:53;;;;;;;8.93;3.57;;;;;;;;;;5051835;28;20014;-76
2023/04/20 00:40:19;;;;;;;8.57;3.30;;;;;;;;;;5054579;28;20036;-78
2023/04/20 00:42:48;;;;;;;5.33;3.37;;;;;;;;;;5052095;28;20041;-77
2023/04/20 00:45:24;;;;;;;5.83;3.30;;;;;;;;;;5049960;28;20025;-77
2023/04/20 00:47:50;;;;;;;5.47;2.90;;;;;;;;;;5048692;28;20033;-76
2023/04/20 00:50:16;;;;;;;6.67;3.13;;;;;;;;;;5049877;28;20181;-76
2023/04/20 00:52:42;;;;;;;5.53;3.00;;;;;;;;;;5050624;28;20025;-79
2023/04/20 00:55:09;;;;;;;8.47;3.23;;;;;;;;;;5048726;28;20556;-78
2023/04/20 00:57:35;;;;;;;5.23;3.33;;;;;;;;;;5050383;28;20029;-77
2023/04/20 01:00:01;;;;;;;6.43;3.40;;;;;;;;;;5049768;28;20045;-80
2023/04/20 01:02:35;;;;;;;6.37;3.27;;;;;;;;;;5048572;28;20033;-78
2023/04/20 01:05:02;;;;;;;7.33;3.50;;;;;;;;;;5047678;28;20026;-76
2023/04/20 01:07:29;;;;;;;7.77;3.53;;;;;;;;;;5048994;28;20045;-77
2023/04/20 01:09:55;;;;;;;11.17;3.83;;;;;;;;;;5049042;28;20048;-80
2023/04/20 01:12:25;;;;;;;6.80;3.17;;;;;;;;;;5049068;28;20021;-76
2023/04/20 01:14:51;;;;;;;7.43;3.30;;;;;;;;;;5049232;28;21221;-78
2023/04/20 01:17:20;;;;;;;25.67;3.90;;;;;;;;;;5048952;28;20064;-83
2023/04/20 01:19:46;;;;;;;6.00;3.53;;;;;;;;;;5049189;28;20033;-76
2023/04/20 01:22:24;;;;;;;7.30;3.43;;;;;;;;;;5049457;28;20106;-79
2023/04/20 01:24:50;;;;;;;6.03;3.33;;;;;;;;;;5048789;28;20052;-77
2023/04/20 01:27:16;;;;;;;9.20;4.00;;;;;;;;;;5049461;28;20044;-77
2023/04/20 01:29:42;;;;;;;8.50;3.63;;;;;;;;;;5104331;22;20052;-78
2023/04/20 01:32:09;;;;;;;8.90;3.53;;;;;;;;;;5055207;28;20029;-77
2023/04/20 01:34:35;;;;;;;9.40;3.20;;;;;;;;;;5054024;28;20033;-77
2023/04/20 01:37:08;;;;;;;11.33;3.13;;;;;;;;;;5054127;28;20032;-76
2023/04/20 01:39:34;;;;;;;;;;;;;;;;;;5054039;28;20049;-76
2023/04/20 01:42:00;;;;;;;5.53;3.43;;;;;;;;;;5052355;28;19901;-77
2023/04/20 01:44:26;;;;;;;7.57;3.83;;;;;;;;;;5051729;28;20032;-77
2023/04/20 01:46:55;;;;;;;9.63;4.10;;;;;;;;;;5054758;28;20095;-78
2023/04/20 01:49:21;;;;;;;7.63;3.67;;;;;;;;;;5053423;28;20033;-78
2023/04/20 01:51:47;;;;;;;6.83;3.60;;;;;;;;;;5051943;28;20057;-77
2023/04/20 01:54:13;;;;;;;8.07;3.37;;;;;;;;;;5053721;28;20041;-79
2023/04/20 01:56:39;;;;;;;6.33;3.50;;;;;;;;;;5053802;28;20056;-79
2023/04/20 01:59:05;;;;;;;7.10;3.73;;;;;;;;;;5054956;28;20048;-77
2023/04/20 02:01:34;;;;;;;14.07;3.70;;;;;;;;;;5052453;28;20032;-78
2023/04/20 02:04:00;;;;;;;8.97;4.13;;;;;;;;;;5051926;28;20030;-77
2023/04/20 02:06:26;;;;;;;9.13;4.10;;;;;;;;;;5054078;28;20022;-77
2023/04/20 02:08:52;;;;;;;10.77;4.13;;;;;;;;;;5052554;28;20084;-77
2023/04/20 02:11:18;;;;;;;5.47;3.30;;;;;;;;;;5051130;28;20024;-79
2023/04/20 02:13:44;;;;;;;8.23;3.93;;;;;;;;;;5054852;28;20074;-77
2023/04/20 02:16:11;;;;;;;6.97;3.47;;;;;;;;;;5053955;28;20032;-77
2023/04/20 02:18:38;;;;;;;6.70;3.83;;;;;;;;;;5053211;28;20052;-77
2023/04/20 02:21:05;;;;;;;7.40;3.57;;;;;;;;;;5053923;28;20052;-79
2023/04/20 02:23:31;;;;;;;6.83;4.10;;;;;;;;;;5052984;28;20029;-77
2023/04/20 02:25:57;;;;;;;8.20;3.93;;;;;;;;;;5052958;28;21271;-79
2023/04/20 02:28:23;;;;;;;7.97;3.43;;;;;;;;;;5051624;28;20081;-77
2023/04/20 02:30:49;;;;;;;6.10;3.67;;;;;;;;;;5051734;28;20029;-79
2023/04/20 02:33:16;;;;;;;5.20;3.27;;;;;;;;;;5053113;28;20101;-76
2023/04/20 02:35:42;;;;;;;9.37;3.53;;;;;;;;;;5052421;28;20032;-77
2023/04/20 02:38:11;;;;;;;9.37;3.30;;;;;;;;;;5053745;28;20044;-76
2023/04/20 02:40:37;;;;;;;8.03;3.30;;;;;;;;;;5052845;28;20041;-76
2023/04/20 02:43:03;;;;;;;7.87;3.40;;;;;;;;;;5051585;28;20048;-75
2023/04/20 02:45:29;;;;;;;8.33;3.47;;;;;;;;;;5052817;28;20097;-76
2023/04/20 02:47:56;;;;;;;6.63;3.20;;;;;;;;;;5053291;28;20047;-76
2023/04/20 02:50:22;;;;;;;6.20;3.67;;;;;;;;;;5052631;28;20040;-79
2023/04/20 02:52:48;;;;;;;6.00;3.40;;;;;;;;;;5054654;28;20052;-76
2023/04/20 02:55:14;;;;;;;15.77;4.23;;;;;;;;;;5053902;28;20025;-76
2023/04/20 02:57:40;;;;;;;5.33;2.90;;;;;;;;;;5055796;28;20026;-81
2023/04/20 03:00:08;;;;;;;7.43;3.43;;;;;;;;;;5055601;28;20049;-80
2023/04/20 03:02:35;;;;;;;7.73;3.43;;;;;;;;;;5058535;28;20044;-77
2023/04/20 03:05:02;;;;;;;8.17;3.47;;;;;;;;;;5055728;28;20014;-80
2023/04/20 03:07:28;;;;;;;6.30;3.43;;;;;;;;;;5038885;28;20034;-83
2023/04/20 03:09:54;;;;;;;6.27;3.37;;;;;;;;;;5054755;28;20045;-80
2023/04/20 03:12:21;;;;;;;6.67;3.60;;;;;;;;;;5055057;28;20033;-76
2023/04/20 03:14:47;;;;;;;6.33;3.63;;;;;;;;;;5054578;28;20144;-76
2023/04/20 03:17:13;;;;;;;10.67;3.50;;;;;;;;;;5055942;28;20025;-76
2023/04/20 03:19:40;;;;;;;12.50;3.53;;;;;;;;;;5055897;28;20125;-76
2023/04/20 03:22:06;;;;;;;13.97;3.43;;;;;;;;;;5054357;28;20040;-76
2023/04/20 03:24:35;;;;;;;5.10;3.07;;;;;;;;;;5055094;28;20057;-78
2023/04/20 03:27:01;;;;;;;11.97;3.77;;;;;;;;;;5055369;28;20033;-76
2023/04/20 03:29:27;;;;;;;4.60;2.97;;;;;;;;;;5054612;28;20057;-78
2023/04/20 03:31:54;;;;;;;6.07;3.03;;;;;;;;;;5055663;28;20048;-77
2023/04/20 03:34:20;;;;;;;7.40;3.07;;;;;;;;;;5055418;28;20033;-76
2023/04/20 03:36:46;;;;;;;7.17;2.87;;;;;;;;;;5053686;28;20014;-77
2023/04/20 03:39:12;;;;;;;7.60;3.33;;;;;;;;;;5053197;28;20037;-80
2023/04/20 03:41:38;;;;;;;8.07;3.30;;;;;;;;;;5053428;28;20041;-78
2023/04/20 03:44:06;;;;;;;7.77;3.43;;;;;;;;;;5053627;28;20041;-79
2023/04/20 03:46:32;;;;;;;6.43;3.00;;;;;;;;;;5052805;28;20025;-77
2023/04/20 03:48:58;;;;;;;8.80;3.30;;;;;;;;;;5054182;28;20033;-76
2023/04/20 03:51:25;;;;;;;5.20;3.30;;;;;;;;;;5055462;28;20029;-78
2023/04/20 03:53:51;;;;;;;8.97;3.93;;;;;;;;;;5054328;28;20030;-76
2023/04/20 03:56:19;;;;;;;11.07;3.10;;;;;;;;;;5037479;28;20268;-82
2023/04/20 03:58:45;;;;;;;9.03;3.00;;;;;;;;;;5056114;28;20041;-80
2023/04/20 04:01:12;;;;;;;5.80;3.10;;;;;;;;;;5053593;28;20029;-78
2023/04/20 04:03:38;;;;;;;10.37;3.00;;;;;;;;;;5053828;28;20044;-76
2023/04/20 04:06:04;;;;;;;8.87;2.73;;;;;;;;;;5055471;28;21405;-78
2023/04/20 04:08:31;;;;;;;7.13;3.10;;;;;;;;;;5054103;28;20029;-76
2023/04/20 04:10:59;;;;;;;8.57;2.93;;;;;;;;;;5054166;28;20018;-76
2023/04/20 04:13:28;;;;;;;9.43;3.40;;;;;;;;;;5054829;28;21194;-76
2023/04/20 04:15:54;;;;;;;10.00;3.57;;;;;;;;;;5054102;28;20033;-77
2023/04/20 04:18:20;;;;;;;5.40;2.73;;;;;;;;;;5054339;28;20037;-76
2023/04/20 04:20:46;;;;;;;5.00;2.60;;;;;;;;;;5053285;28;20029;-77
2023/04/20 04:23:12;;;;;;;9.53;3.47;;;;;;;;;;5053552;28;20039;-80
2023/04/20 04:25:39;;;;;;;6.27;2.80;;;;;;;;;;5049739;28;20989;-81
2023/04/20 04:28:06;;;;;;;10.93;3.30;;;;;;;;;;5052433;28;20060;-79
2023/04/20 04:30:32;;;;;;;9.60;3.80;;;;;;;;;;5053274;28;20040;-80
2023/04/20 04:32:58;;;;;;;6.77;3.70;;;;;;;;;;5052862;28;20045;-80
2023/04/20 04:35:24;;;;;;;5.67;3.40;;;;;;;;;;5053244;28;20022;-78
2023/04/20 04:37:51;;;;;;;9.10;3.10;;;;;;;;;;5053032;28;20248;-79
2023/04/20 04:40:17;;;;;;;6.40;2.90;;;;;;;;;;5054094;28;20042;-77
2023/04/20 04:42:44;;;;;;;8.93;3.57;;;;;;;;;;5054070;28;20025;-78
2023/04/20 04:45:12;;;;;;;7.03;3.23;;;;;;;;;;5054743;28;20020;-80
2023/04/20 04:47:40;;;;;;;8.20;3.63;;;;;;;;;;5054589;28;20042;-78
2023/04/20 04:50:09;;;;;;;8.00;3.33;;;;;;;;;;5053086;28;20047;-77
2023/04/20 04:52:36;;;;;;;10.93;3.23;;;;;;;;;;5053602;28;20017;-78
2023/04/20 04:55:06;;;;;;;8.63;3.53;;;;;;;;;;5055113;28;20026;-78
2023/04/20 04:57:32;;;;;;;9.90;3.50;;;;;;;;;;5054958;28;20021;-77
2023/04/20 04:59:58;;;;;;;9.80;4.10;;;;;;;;;;5055622;28;20044;-77
2023/04/20 05:02:27;;;;;;;7.57;3.30;;;;;;;;;;5055193;28;20048;-77
2023/04/20 05:04:55;;;;;;;6.50;3.30;;;;;;;;;;5054298;28;20045;-77
2023/04/20 05:07:21;;;;;;;6.53;3.80;;;;;;;;;;5054860;28;20033;-79
2023/04/20 05:09:47;;;;;;;8.40;4.43;;;;;;;;;;5054906;28;20025;-78
2023/04/20 05:12:21;;;;;;;6.10;4.17;;;;;;;;;;5053160;28;20025;-78
2023/04/20 05:14:47;;;;;;;10.13;5.03;;;;;;;;;;5053929;28;20037;-77
2023/04/20 05:17:13;;;;;;;9.77;4.70;;;;;;;;;;5053806;28;20030;-77
2023/04/20 05:19:39;;;;;;;13.87;5.73;;;;;;;;;;5052980;28;20033;-78
2023/04/20 05:22:05;;;;;;;9.47;4.67;;;;;;;;;;5053314;28;20041;-77
2023/04/20 05:24:31;;;;;;;7.73;4.97;;;;;;;;;;5051523;28;20045;-76
2023/04/20 05:26:57;;;;;;;11.97;6.10;;;;;;;;;;5053564;28;20040;-77
2023/04/20 05:29:23;;;;;;;13.73;6.00;;;;;;;;;;5052877;28;20029;-77
2023/04/20 05:31:55;;;;;;;11.77;6.40;;;;;;;;;;5054413;28;20052;-77
2023/04/20 05:34:24;;;;;;;15.67;5.80;;;;;;;;;;5052751;28;20124;-76
2023/04/20 05:36:51;;;;;;;11.07;6.60;;;;;;;;;;5053491;28;20017;-76
2023/04/20 05:39:17;;;;;;;11.17;6.30;;;;;;;;;;5053195;28;20029;-78
2023/04/20 05:41:43;;;;;;;9.13;6.50;;;;;;;;;;5052494;28;20060;-77
2023/04/20 05:44:09;;;;;;;15.50;7.63;;;;;;;;;;5052849;28;20060;-78
2023/04/20 05:46:37;;;;;;;13.43;7.60;;;;;;;;;;5052325;28;20034;-77
2023/04/20 05:49:06;;;;;;;13.27;7.30;;;;;;;;;;5051246;28;20037;-78
2023/04/20 05:51:34;;;;;;;13.27;7.57;;;;;;;;;;5054131;28;20025;-76
2023/04/20 05:54:04;;;;;;;15.13;7.07;;;;;;;;;;5052789;28;20037;-77
2023/04/20 05:56:32;;;;;;;11.97;8.33;;;;;;;;;;5053553;28;20085;-78
2023/04/20 05:58:59;;;;;;;16.10;7.60;;;;;;;;;;5052502;28;20060;-78
2023/04/20 06:04:11;;;;;;;10.87;7.80;;;;;;;;;;5054158;28;20043;-76
2023/04/20 06:06:38;;;;;;;11.57;8.00;;;;;;;;;;5052947;28;20033;-77
2023/04/20 06:09:04;;;;;;;14.90;8.53;;;;;;;;;;5052591;28;20056;-77
2023/04/20 06:11:30;;;;;;;13.47;7.73;;;;;;;;;;5053393;28;20078;-78
2023/04/20 06:13:56;;;;;;;13.87;7.77;;;;;;;;;;5035463;28;20112;-78
2023/04/20 06:16:25;;;;;;;15.63;8.57;;;;;;;;;;5053472;28;20027;-77
2023/04/20 06:18:51;;;;;;;14.43;8.00;;;;;;;;;;5054076;28;20037;-77
2023/04/20 06:21:19;;;;;;;24.50;8.47;;;;;;;;;;5052010;28;20029;-77
2023/04/20 06:23:47;;;;;;;26.17;8.00;;;;;;;;;;5052160;28;20037;-76
2023/04/20 06:26:20;;;;;;;14.20;7.53;;;;;;;;;;5052630;28;20076;-76
2023/04/20 06:29:04;;;;;;;36.00;8.23;;;;;;;;;;5053841;28;20045;-77
2023/04/20 06:31:30;;;;;;;21.97;8.07;;;;;;;;;;5051716;28;20021;-77
2023/04/20 06:33:56;;;;;;;19.17;8.93;;;;;;;;;;5052348;28;20036;-78
2023/04/20 06:36:22;;;;;;;13.07;8.00;;;;;;;;;;5053072;28;20021;-76
2023/04/20 06:38:50;;;;;;;15.77;8.30;;;;;;;;;;5054781;28;20047;-77
2023/04/20 06:41:16;;;;;;;19.60;10.50;;;;;;;;;;5053625;28;20021;-77
2023/04/20 06:43:45;;;;;;;14.83;8.63;;;;;;;;;;5052143;28;20045;-76
2023/04/20 06:46:18;;;;;;;14.00;9.60;;;;;;;;;;5054730;28;20022;-77
2023/04/20 06:48:46;;;;;;;14.60;8.93;;;;;;;;;;5053863;28;20034;-78
2023/04/20 06:51:15;;;;;;;16.97;11.30;;;;;;;;;;5052755;28;20029;-78
2023/04/20 06:53:48;;;;;;;16.67;10.10;;;;;;;;;;5054098;28;20075;-76
2023/04/20 06:56:17;;;;;;;16.03;12.27;;;;;;;;;;5052314;28;20126;-79
2023/04/20 06:59:01;;;;;;;17.97;13.17;;;;;;;;;;5049043;28;20051;-82
2023/04/20 07:01:30;;;;;;;17.87;10.53;;;;;;;;;;5049440;28;20068;-81
2023/04/20 07:03:58;;;;;;;16.47;12.53;;;;;;;;;;5045825;28;20039;-81
2023/04/20 07:06:26;;;;;;;17.60;10.73;;;;;;;;;;5046814;28;20061;-76
2023/04/20 07:08:52;;;;;;;15.87;11.20;;;;;;;;;;5049718;28;20163;-78
2023/04/20 07:11:18;;;;;;;16.10;11.90;;;;;;;;;;5051600;28;20033;-77
2023/04/20 07:13:44;;;;;;;15.80;12.23;;;;;;;;;;5051040;28;20033;-79
2023/04/20 07:16:15;;;;;;;14.73;10.23;;;;;;;;;;5051278;28;20041;-77
2023/04/20 07:18:44;;;;;;;15.13;11.17;;;;;;;;;;5050354;28;20033;-77
2023/04/20 07:21:10;;;;;;;12.57;8.97;;;;;;;;;;5051185;28;20052;-80
2023/04/20 07:23:36;;;;;;;16.63;10.60;;;;;;;;;;5050248;28;20025;-79
2023/04/20 07:26:02;;;;;;;16.53;10.37;;;;;;;;;;5050568;28;20022;-78
2023/04/20 07:28:35;;;;;;;16.63;12.17;;;;;;;;;;5051586;28;20028;-81
2023/04/20 07:31:04;;;;;;;13.60;10.23;;;;;;;;;;5035738;28;20041;-77
2023/04/20 07:33:30;;;;;;;16.40;10.43;;;;;;;;;;5050888;28;20063;-78
2023/04/20 07:35:57;;;;;;;15.73;10.43;;;;;;;;;;5051653;28;20033;-77
2023/04/20 07:38:23;;;;;;;14.97;11.23;;;;;;;;;;5053602;28;20029;-78
2023/04/20 07:40:49;;;;;;;14.27;10.53;;;;;;;;;;5051543;28;20038;-80
2023/04/20 07:43:15;;;;;;;12.37;9.67;;;;;;;;;;5054547;28;20033;-78
2023/04/20 07:45:41;;;;;;;17.63;11.30;;;;;;;;;;5054881;28;20052;-84
2023/04/20 07:48:11;;;;;;;10.03;8.40;;;;;;;;;;5053995;28;20041;-81
2023/04/20 07:50:39;;;;;;;14.90;9.47;;;;;;;;;;5055613;28;20013;-79
2023/04/20 07:53:06;;;;;;;8.27;7.30;;;;;;;;;;5054472;28;20025;-81
2023/04/20 07:55:32;;;;;;;9.60;7.47;;;;;;;;;;5054617;28;20029;-81
2023/04/20 07:57:59;;;;;;;8.50;6.03;;;;;;;;;;5054578;28;20048;-80
2023/04/20 08:00:25;;;;;;;7.17;5.33;;;;;;;;;;5053054;28;20121;-77
2023/04/20 08:02:51;;;;;;;11.37;8.30;;;;;;;;;;5053711;28;20091;-77
2023/04/20 08:05:18;;;;;;;6.57;5.53;;;;;;;;;;5053794;28;20152;-85
2023/04/20 08:07:44;;;;;;;7.50;5.30;;;;;;;;;;5053051;28;20033;-79
2023/04/20 08:10:13;;;;;;;7.63;5.87;;;;;;;;;;5053731;28;20041;-79
2023/04/20 08:12:39;;;;;;;5.50;4.53;;;;;;;;;;5053317;28;20127;-80
2023/04/20 08:15:06;;;;;;;5.43;4.60;;;;;;;;;;5055805;28;20031;-81
2023/04/20 08:17:32;;;;;;;5.20;4.70;;;;;;;;;;5049238;28;20033;-78
2023/04/20 08:19:58;;;;;;;5.57;4.20;;;;;;;;;;5051810;28;20115;-80
2023/04/20 08:22:28;;;;;;;5.17;4.67;;;;;;;;;;5053242;28;20037;-85
2023/04/20 08:24:54;;;;;;;5.53;4.43;;;;;;;;;;5054713;28;20239;-77
2023/04/20 08:27:20;;;;;;;5.77;4.23;;;;;;;;;;5055415;28;20092;-78
2023/04/20 08:29:46;;;;;;;5.20;3.83;;;;;;;;;;5054148;28;20033;-82
2023/04/20 08:32:12;;;;;;;6.27;4.13;;;;;;;;;;5054846;28;20017;-79
2023/04/20 08:34:45;;;;;;;5.97;3.97;;;;;;;;;;5053671;28;20033;-78
2023/04/20 08:37:11;;;;;;;5.45;3.90;;;;;;;;;;5049802;28;20994;-80
2023/04/20 08:39:37;;;;;;;3.73;3.23;;;;;;;;;;5049890;28;21247;-83
2023/04/20 08:42:03;;;;;;;5.30;4.40;;;;;;;;;;5050668;28;20092;-80
2023/04/20 08:44:30;;;;;;;5.57;4.50;;;;;;;;;;5052463;28;20013;-81
2023/04/20 08:46:56;;;;;;;5.53;4.10;;;;;;;;;;5056571;28;20025;-79
2023/04/20 08:49:22;;;;;;;5.70;5.13;;;;;;;;;;5052378;28;20221;-82
2023/04/20 08:51:48;;;;;;;5.77;4.90;;;;;;;;;;5054931;28;20067;-79
2023/04/20 08:54:15;;;;;;;4.20;3.80;;;;;;;;;;5054124;28;20038;-82
2023/04/20 08:56:42;;;;;;;4.90;3.50;;;;;;;;;;5049933;28;20091;-82
2023/04/20 08:59:13;;;;;;;5.70;4.27;;;;;;;;;;5048074;28;20136;-80
2023/04/20 09:01:40;;;;;;;4.83;4.13;;;;;;;;;;5048590;28;20029;-83
2023/04/20 09:04:16;;;;;;;6.03;4.70;;;;;;;;;;5054855;28;20097;-80
2023/04/20 09:06:48;;;;;;;5.80;4.30;;;;;;;;;;5048829;28;20029;-79
2023/04/20 09:09:17;;;;;;;11.27;7.00;;;;;;;;;;5051119;28;20026;-82
2023/04/20 09:11:43;;;;;;;6.00;5.00;;;;;;;;;;5051879;28;20030;-78
2023/04/20 09:14:11;;;;;;;7.07;5.00;;;;;;;;;;5052712;28;20022;-80
2023/04/20 09:16:38;;;;;;;5.40;4.70;;;;;;;;;;5056616;28;20017;-79
2023/04/20 09:19:05;;;;;;;7.90;6.70;;;;;;;;;;5055637;28;20036;-77
2023/04/20 09:21:31;;;;;;;7.23;5.73;;;;;;;;;;5054097;28;20433;-79
2023/04/20 09:24:01;;;;;;;5.17;4.63;;;;;;;;;;5052401;28;20039;-80
2023/04/20 09:26:31;;;;;;;6.23;5.30;;;;;;;;;;5053723;28;20034;-80
2023/04/20 09:28:58;;;;;;;13.63;10.80;;;;;;;;;;5054898;28;20060;-79
2023/04/20 09:31:24;;;;;;;10.40;7.73;;;;;;;;;;5053522;28;20029;-78
2023/04/20 09:33:57;;;;;;;4.93;4.43;;;;;;;;;;5055135;28;20010;-80
2023/04/20 09:36:40;;;;;;;7.27;4.43;;;;;;;;;;5055020;28;20044;-78
2023/04/20 09:39:07;;;;;;;4.18;3.65;;;;;;;;;;5054425;28;20026;-77
2023/04/20 09:41:34;;;;;;;8.47;4.23;;;;;;;;;;5055834;28;20041;-78
2023/04/20 09:44:01;;;;;;;7.77;4.40;;;;;;;;;;5054745;28;20029;-77
2023/04/20 09:46:31;;;;;;;4.93;3.90;;;;;;;;;;5055217;28;20017;-78
2023/04/20 09:48:59;;;;;;;5.17;4.30;;;;;;;;;;5054050;28;20033;-80
2023/04/20 09:51:28;;;;;;;4.63;3.77;;;;;;;;;;5055608;28;20053;-81
2023/04/20 09:53:55;;;;;;;4.83;3.90;;;;;;;;;;5054618;28;20033;-77
2023/04/20 09:56:21;;;;;;;4.67;3.73;;;;;;;;;;5053923;28;20045;-80
2023/04/20 09:58:47;;;;;;;8.20;2.53;;;;;;;;;;5051609;28;20037;-81
2023/04/20 10:01:13;;;;;;;4.33;2.10;;;;;;;;;;5053807;28;20047;-78
2023/04/20 10:03:43;;;;;;;3.93;2.00;;;;;;;;;;5054335;28;20047;-78
2023/04/20 10:06:23;;;;;;;2.47;1.80;;;;;;;;;;5054836;28;20017;-78
2023/04/20 10:08:50;;;;;;;2.73;1.20;;;;;;;;;;5053688;28;20044;-81
2023/04/20 10:11:35;;;;;;;3.40;1.53;;;;;;;;;;5053831;28;20021;-76
2023/04/20 10:14:14;;;;;;;1.80;1.30;;;;;;;;;;5055360;28;20187;-78
2023/04/20 10:16:40;;;;;;;2.97;1.50;;;;;;;;;;5055348;28;20027;-78
2023/04/20 10:19:06;;;;;;;1.60;1.00;;;;;;;;;;5055177;28;20033;-78
2023/04/20 10:21:32;;;;;;;3.33;1.30;;;;;;;;;;5056006;28;20022;-78
2023/04/20 10:24:02;;;;;;;2.03;1.20;;;;;;;;;;5055825;28;20065;-78
2023/04/20 10:26:38;;;;;;;3.97;1.63;;;;;;;;;;5054372;28;20555;-76
2023/04/20 10:29:05;;;;;;;1.70;1.30;;;;;;;;;;5052808;28;20030;-77
2023/04/20 10:31:37;;;;;;;2.07;1.20;;;;;;;;;;5054331;28;20024;-79
2023/04/20 10:34:04;;;;;;;1.13;0.98;;;;;;;;;;5055631;28;20017;-76
2023/04/20 10:36:31;;;;;;;4.17;3.30;;;;;;;;;;5055379;28;20032;-78
2023/04/20 10:38:58;;;;;;;1.53;1.03;;;;;;;;;;5057236;28;20029;-77
2023/04/20 10:41:24;;;;;;;2.90;1.63;;;;;;;;;;5054190;28;20025;-77
2023/04/20 10:43:50;;;;;;;5.47;2.97;;;;;;;;;;5054929;28;20030;-77
2023/04/20 10:46:35;;;;;;;1.57;1.10;;;;;;;;;;5052634;28;20097;-79
2023/04/20 10:49:01;;;;;;;2.10;1.10;;;;;;;;;;5053565;28;20034;-77
2023/04/20 10:51:27;;;;;;;4.57;2.70;;;;;;;;;;5057493;28;20018;-77
2023/04/20 10:53:59;;;;;;;1.53;0.90;;;;;;;;;;5057272;28;20040;-77
2023/04/20 10:56:26;;;;;;;2.30;1.48;;;;;;;;;;5056384;28;20047;-77
2023/04/20 10:58:52;;;;;;;2.17;0.90;;;;;;;;;;5054943;28;20041;-78
2023/04/20 11:01:18;;;;;;;2.70;1.57;;;;;;;;;;5054634;28;21225;-77
2023/04/20 11:03:50;;;;;;;1.07;0.83;;;;;;;;;;5055759;28;20013;-77
2023/04/20 11:06:18;;;;;;;0.97;0.73;;;;;;;;;;5057024;28;20013;-78
2023/04/20 11:08:44;;;;;;;3.10;1.80;;;;;;;;;;5055959;28;20021;-77
2023/04/20 11:11:39;;;;;;;1.37;0.83;;;;;;;;;;5054535;28;21143;-78
2023/04/20 11:14:11;;;;;;;3.03;1.37;;;;;;;;;;5026913;28;20029;-77
2023/04/20 11:16:41;;;;;;;2.10;1.10;;;;;;;;;;5055621;28;20029;-78
2023/04/20 11:19:07;;;;;;;3.63;0.90;;;;;;;;;;5060669;28;20029;-79
2023/04/20 11:21:37;;;;;;;1.20;0.70;;;;;;;;;;5059524;28;20009;-79
2023/04/20 11:24:04;;;;;;;2.87;1.00;;;;;;;;;;5059660;28;20017;-77
2023/04/20 11:26:39;;;;;;;3.40;1.07;;;;;;;;;;5057108;28;20025;-77
2023/04/20 11:29:08;;;;;;;2.27;1.33;;;;;;;;;;5058774;28;20029;-78
2023/04/20 11:31:36;;;;;;;0.70;0.50;;;;;;;;;;5060788;28;20494;-77
2023/04/20 11:34:07;;;;;;;1.43;0.80;;;;;;;;;;5059189;28;20025;-78
2023/04/20 11:36:38;;;;;;;1.00;0.73;;;;;;;;;;5060132;28;20025;-77
2023/04/20 11:39:08;;;;;;;2.43;1.50;;;;;;;;;;5059910;28;20100;-78
2023/04/20 11:41:37;;;;;;;3.47;1.80;;;;;;;;;;5057076;28;20029;-77
2023/04/20 11:44:04;;;;;;;2.13;1.50;;;;;;;;;;5060586;28;20069;-78
2023/04/20 11:46:33;;;;;;;1.67;1.30;;;;;;;;;;5059760;28;20132;-77
2023/04/20 11:49:01;;;;;;;1.93;1.00;;;;;;;;;;5057270;28;20026;-80
2023/04/20 11:51:27;;;;;;;2.03;1.00;;;;;;;;;;5060308;28;20220;-77
2023/04/20 11:53:53;;;;;;;1.03;0.63;;;;;;;;;;5058187;28;20033;-77
2023/04/20 11:56:19;;;;;;;1.57;0.87;;;;;;;;;;5059144;28;20016;-77
2023/04/20 11:58:46;;;;;;;2.03;0.87;;;;;;;;;;5056712;28;20055;-77
2023/04/20 12:01:12;;;;;;;1.10;0.80;;;;;;;;;;5058239;28;20101;-78
2023/04/20 12:03:38;;;;;;;2.30;1.07;;;;;;;;;;5058581;28;20036;-77
2023/04/20 12:06:07;;;;;;;2.23;1.60;;;;;;;;;;5059470;28;20104;-78
2023/04/20 12:08:33;;;;;;;3.50;1.67;;;;;;;;;;5057981;28;20033;-76
2023/04/20 12:10:59;;;;;;;2.07;1.47;;;;;;;;;;5057559;28;20033;-78
2023/04/20 12:13:25;;;;;;;3.93;2.33;;;;;;;;;;5058594;28;20018;-77
2023/04/20 12:15:51;;;;;;;2.23;1.67;;;;;;;;;;5056995;28;20227;-77
2023/04/20 12:18:18;;;;;;;3.40;2.43;;;;;;;;;;5058813;28;20079;-77
2023/04/20 12:20:45;;;;;;;3.27;2.53;;;;;;;;;;5057733;28;20036;-77
2023/04/20 12:23:12;;;;;;;3.13;2.60;;;;;;;;;;5060319;28;20017;-78
2023/04/20 12:25:38;;;;;;;5.27;2.90;;;;;;;;;;5057146;28;20029;-77
2023/04/20 12:28:06;;;;;;;2.87;2.50;;;;;;;;;;5057798;28;20021;-77
2023/04/20 12:30:34;;;;;;;5.17;2.93;;;;;;;;;;5057033;28;20021;-77
2023/04/20 12:33:00;;;;;;;2.73;2.40;;;;;;;;;;5059784;28;20010;-77
2023/04/20 12:35:28;;;;;;;2.50;2.30;;;;;;;;;;5059544;28;20085;-79
2023/04/20 12:37:55;;;;;;;3.63;2.20;;;;;;;;;;5057186;28;20010;-77
2023/04/20 12:40:21;;;;;;;2.87;2.27;;;;;;;;;;5058163;28;20039;-79
2023/04/20 12:42:47;;;;;;;3.23;2.30;;;;;;;;;;5057707;28;20021;-78
2023/04/20 12:45:13;;;;;;;3.20;2.30;;;;;;;;;;5058336;28;20024;-77
2023/04/20 12:47:39;;;;;;;4.10;3.07;;;;;;;;;;5056417;28;20013;-81
2023/04/20 12:50:06;;;;;;;2.93;2.23;;;;;;;;;;5057998;28;20028;-77
2023/04/20 12:52:35;;;;;;;2.60;2.07;;;;;;;;;;5056010;28;20045;-78
2023/04/20 12:55:01;;;;;;;3.80;2.57;;;;;;;;;;5058276;28;20015;-76
2023/04/20 12:57:27;;;;;;;6.37;2.70;;;;;;;;;;5058407;28;20049;-78
2023/04/20 12:59:53;;;;;;;5.20;3.13;;;;;;;;;;5058092;28;20033;-77
2023/04/20 13:02:19;;;;;;;5.90;3.17;;;;;;;;;;5057257;28;20052;-78
2023/04/20 13:04:45;;;;;;;4.93;2.80;;;;;;;;;;5057199;28;20047;-77
2023/04/20 13:07:17;;;;;;;4.57;3.10;;;;;;;;;;5056040;28;20105;-77
2023/04/20 13:09:43;;;;;;;5.63;3.13;;;;;;;;;;5057957;28;20017;-77
2023/04/20 13:12:11;;;;;;;4.37;3.40;;;;;;;;;;5056289;28;20060;-79
2023/04/20 13:14:37;;;;;;;6.67;3.43;;;;;;;;;;5057721;28;20044;-77
2023/04/20 13:17:05;;;;;;;6.07;3.27;;;;;;;;;;5054768;28;20048;-79
2023/04/20 13:19:32;;;;;;;5.93;3.93;;;;;;;;;;5057216;28;20021;-77
2023/04/20 13:21:58;;;;;;;6.30;3.63;;;;;;;;;;5056605;28;20041;-79
2023/04/20 13:24:24;;;;;;;7.32;3.75;;;;;;;;;;5055882;28;20091;-76
2023/04/20 13:26:55;;;;;;;4.78;3.20;;;;;;;;;;5055080;28;20044;-78
2023/04/20 13:29:24;;;;;;;5.50;3.55;;;;;;;;;;5056964;28;20041;-77
2023/04/20 13:31:50;;;;;;;5.10;3.53;;;;;;;;;;5054914;28;20029;-79
2023/04/20 13:34:17;;;;;;;6.38;4.05;;;;;;;;;;5054910;28;20025;-78
2023/04/20 13:36:43;;;;;;;4.97;3.78;;;;;;;;;;5038157;28;20030;-79
2023/04/20 13:39:10;;;;;;;5.22;3.78;;;;;;;;;;5054368;28;20063;-77
2023/04/20 13:41:36;;;;;;;3.97;3.08;;;;;;;;;;5055302;28;20041;-77
2023/04/20 13:44:03;;;;;;;8.70;4.28;;;;;;;;;;5056742;28;20025;-77
2023/04/20 13:46:29;;;;;;;5.72;3.53;;;;;;;;;;5055860;28;20056;-78
2023/04/20 13:48:55;;;;;;;6.45;3.58;;;;;;;;;;5056702;28;20017;-78
2023/04/20 13:51:23;;;;;;;5.50;3.13;;;;;;;;;;5054632;28;20028;-77
2023/04/20 13:53:49;;;;;;;4.55;3.35;;;;;;;;;;5055670;28;20028;-78
2023/04/20 13:56:15;;;;;;;5.00;3.60;;;;;;;;;;5054704;28;20037;-77
2023/04/20 13:58:42;;;;;;;10.02;4.72;;;;;;;;;;5056187;28;20032;-76
2023/04/20 14:01:09;;;;;;;5.03;3.17;;;;;;;;;;5055616;28;20074;-77
2023/04/20 14:03:35;;;;;;;4.78;3.40;;;;;;;;;;5055896;28;20025;-77
2023/04/20 14:06:02;;;;;;;6.15;3.00;;;;;;;;;;5055432;28;20103;-77
2023/04/20 14:08:31;;;;;;;4.85;3.22;;;;;;;;;;5054654;28;20029;-78
2023/04/20 14:10:59;;;;;;;4.30;2.60;;;;;;;;;;5054895;28;20030;-77
2023/04/20 14:13:25;;;;;;;7.80;3.20;;;;;;;;;;5056134;28;20009;-78
2023/04/20 14:15:52;;;;;;;4.82;3.10;;;;;;;;;;5055068;28;20146;-78
2023/04/20 14:18:18;;;;;;;4.20;3.28;;;;;;;;;;5055092;28;20041;-78
2023/04/20 14:20:51;;;;;;;4.25;3.40;;;;;;;;;;5054368;28;20257;-78
2023/04/20 14:23:17;;;;;;;8.82;4.10;;;;;;;;;;5053722;28;20459;-78
2023/04/20 14:25:45;;;;;;;5.57;3.33;;;;;;;;;;5054698;28;20051;-78
2023/04/20 14:28:11;;;;;;;4.88;2.92;;;;;;;;;;5054617;28;20021;-78
2023/04/20 14:30:37;;;;;;;6.13;3.95;;;;;;;;;;5055648;28;20063;-78
2023/04/20 14:33:04;;;;;;;5.55;3.22;;;;;;;;;;5056087;28;20025;-78
2023/04/20 14:35:40;;;;;;;3.83;3.10;;;;;;;;;;5056066;28;20016;-78
2023/04/20 14:38:09;;;;;;;4.57;3.22;;;;;;;;;;5054165;28;20033;-78
2023/04/20 14:40:35;;;;;;;6.40;3.43;;;;;;;;;;5053971;28;20036;-78
2023/04/20 14:43:01;;;;;;;3.77;3.20;;;;;;;;;;5056029;28;20027;-79
2023/04/20 14:45:29;;;;;;;4.60;3.25;;;;;;;;;;5053710;28;20393;-77